Time;durP1;ratioP1;P1;durP2;ratioP2;P2;SDS_P1;SDS_P2;PMS_P1;PMS_P2;Temp;Humidity;BMP_temperature;BMP_pressure;BME280_temperature;BME280_humidity;BME280_pressure;Samples;Min_cycle;Max_cycle;Signal;HPM_P1;HPM_P2
2023/12/18 00:01:39;;;;;;;26.33;12.27;;;;;;;;;;4979667;28;20046;-72
2023/12/18 00:04:07;;;;;;;24.98;11.68;;;;;;;;;;4964749;28;20050;-72
2023/12/18 00:06:33;;;;;;;26.23;11.52;;;;;;;;;;4972246;28;20050;-72
2023/12/18 00:08:59;;;;;;;28.58;11.50;;;;;;;;;;4980218;28;20446;-72
2023/12/18 00:11:25;;;;;;;26.23;10.73;;;;;;;;;;4981834;28;20058;-72
2023/12/18 00:13:51;;;;;;;27.55;11.77;;;;;;;;;;4981157;28;20050;-72
2023/12/18 00:16:17;;;;;;;29.45;11.45;;;;;;;;;;4985032;28;20742;-72
2023/12/18 00:18:43;;;;;;;27.27;10.90;;;;;;;;;;4984986;28;20073;-72
2023/12/18 00:21:09;;;;;;;28.67;10.93;;;;;;;;;;4984669;28;20061;-72
2023/12/18 00:23:34;;;;;;;24.23;9.93;;;8.30;99.90;;;;;;4985071;28;20046;-72
2023/12/18 00:26:00;;;;;;;17.30;9.88;;;;;;;;;;4984201;28;20046;-72
2023/12/18 00:28:26;;;;;;;22.50;9.90;;;;;;;;;;5002551;28;20053;-72
2023/12/18 00:30:52;;;;;;;22.08;10.63;;;;;;;;;;4984093;28;20140;-72
2023/12/18 00:33:18;;;;;;;21.55;10.85;;;;;;;;;;5005204;28;20056;-72
2023/12/18 00:35:44;;;;;;;24.70;9.82;;;;;;;;;;4971883;28;20046;-72
2023/12/18 00:38:10;;;;;;;18.13;9.63;;;;;;;;;;4972175;28;20079;-72
2023/12/18 00:40:36;;;;;;;19.25;8.65;;;;;;;;;;4988584;28;20121;-72
2023/12/18 00:43:02;;;;;;;21.27;8.43;;;;;;;;;;4988483;28;20058;-72
2023/12/18 00:45:28;;;;;;;24.25;9.63;;;;;;;;;;4988374;28;20049;-72
2023/12/18 00:47:54;;;;;;;20.70;8.63;;;;;;;;;;5006131;28;20049;-72
2023/12/18 00:50:20;;;;;;;28.58;9.30;;;;;;;;;;4987952;28;20746;-72
2023/12/18 00:52:46;;;;;;;18.15;8.15;;;;;;;;;;4987971;28;20557;-72
2023/12/18 00:55:12;;;;;;;25.08;8.23;;;;;;;;;;4988043;28;20042;-72
2023/12/18 00:57:38;;;;;;;20.58;7.68;;;;;;;;;;4988397;28;20061;-72
2023/12/18 01:00:05;;;;;;;35.95;9.93;;;;;;;;;;4988327;28;20111;-72
2023/12/18 01:02:31;;;;;;;21.60;8.23;;;;;;;;;;4987900;28;20082;-72
2023/12/18 01:04:57;;;;;;;24.17;8.30;;;;;;;;;;4987827;28;20153;-72
2023/12/18 01:07:23;;;;;;;25.70;8.52;;;;;;;;;;4985831;28;20049;-72
2023/12/18 01:09:49;;;;;;;18.77;8.05;;;;;;;;;;4987485;28;20049;-72
2023/12/18 01:12:15;;;;;;;20.42;8.10;;;;;;;;;;4971394;28;20041;-72
2023/12/18 01:14:44;;;;;;;22.83;9.30;;;;;;;;;;5005188;28;20061;-72
2023/12/18 01:17:11;;;;;;;18.15;8.35;;;;;;;;;;4987644;28;20092;-72
2023/12/18 01:19:37;;;;;;;27.08;9.07;;;;;;;;;;4986299;28;20099;-72
2023/12/18 01:22:03;;;;;;;24.27;8.48;;;;;;;;;;4987816;28;20056;-72
2023/12/18 01:24:29;;;;;;;26.42;8.40;;;;;;;;;;4987526;28;20050;-72
2023/12/18 01:26:55;;;;;;;23.15;7.50;;;;;;;;;;4987869;28;20763;-72
2023/12/18 01:29:21;;;;;;;20.02;7.40;;;;;;;;;;4987956;28;20119;-72
2023/12/18 01:31:47;;;;;;;26.60;7.35;;;;;;;;;;4988260;28;20044;-72
2023/12/18 01:34:13;;;;;;;21.00;9.38;;;;;;;;;;4985750;28;20042;-72
2023/12/18 01:36:39;;;;;;;16.40;7.28;;;;;;;;;;4987303;28;20835;-72
2023/12/18 01:39:06;;;;;;;26.42;7.88;;;;;;;;;;4987433;28;20060;-72
2023/12/18 01:41:32;;;;;;;20.23;6.97;;;;;;;;;;5005369;28;20089;-72
2023/12/18 01:43:58;;;;;;;21.10;8.43;;;;;;;;;;4987237;28;20313;-72
2023/12/18 01:46:25;;;;;;;19.30;6.38;;;;;;;;;;4987306;28;20085;-72
2023/12/18 01:48:51;;;;;;;17.50;6.72;;;;;;;;;;5005174;28;20058;-72
2023/12/18 01:51:18;;;;;;;24.17;6.78;;;;;;;;;;4987411;28;20069;-72
2023/12/18 01:53:46;;;;;;;21.23;7.25;;;;;;;;;;4987461;28;20077;-72
2023/12/18 01:56:13;;;;;;;19.20;7.13;;;;;;;;;;5004918;28;20041;-72
2023/12/18 01:58:40;;;;;;;18.77;6.95;;;;;;;;;;5005262;28;20041;-71
2023/12/18 02:01:08;;;;;;;21.63;7.47;;;;;;;;;;4986826;28;20046;-72
2023/12/18 02:03:35;;;;;;;24.35;7.95;;;;;;;;;;4987229;28;20054;-72
2023/12/18 02:06:01;;;;;;;20.50;7.93;;;;;;;;;;4986744;28;20053;-72
2023/12/18 02:08:28;;;;;;;25.90;8.38;;;;;;;;;;4987356;28;20342;-72
2023/12/18 02:10:54;;;;;;;20.85;6.90;;;;;;;;;;4983918;28;20493;-72
2023/12/18 02:13:20;;;;;;;27.52;7.28;;;;;;;;;;4987387;28;20105;-72
2023/12/18 02:15:46;;;;;;;18.73;6.78;;;;;;;;;;5004944;28;20050;-72
2023/12/18 02:18:12;;;;;;;19.67;6.80;;;;;;;;;;4986182;28;20716;-72
2023/12/18 02:20:41;;;;;;;21.40;7.18;;;;;;;;;;4987111;28;20144;-72
2023/12/18 02:23:07;;;;;;;21.05;6.97;;;;;;;;;;4986868;28;20053;-72
2023/12/18 02:25:33;;;;;;;15.75;6.55;;;;;;;;;;4986550;28;20679;-72
2023/12/18 02:27:59;;;;;;;21.33;6.65;;;;;;;;;;4986394;28;20125;-72
2023/12/18 02:30:25;;;;;;;17.90;7.00;;;;;;;;;;4986675;28;20558;-72
2023/12/18 02:32:51;;;;;;;16.17;6.60;;;;;;;;;;4986443;28;20852;-72
2023/12/18 02:35:17;;;;;;;18.60;7.78;;;;;;;;;;4985903;28;20648;-72
2023/12/18 02:37:44;;;;;;;26.73;8.80;;;;;;;;;;4986338;28;20053;-72
2023/12/18 02:40:10;;;;;;;27.40;8.45;;;;;;;;;;4986022;28;20053;-72
2023/12/18 02:42:36;;;;;;;25.10;8.80;;;;;;;;;;5004130;28;20084;-72
2023/12/18 02:45:02;;;;;;;28.60;8.13;;;;;;;;;;4986056;28;20133;-72
2023/12/18 02:47:28;;;;;;;23.92;8.75;;;;;;;;;;4986117;28;20060;-72
2023/12/18 02:49:54;;;;;;;24.67;7.90;;;;;;;;;;4986304;28;20041;-72
2023/12/18 02:52:20;;;;;;;24.27;8.48;;;;;;;;;;4985356;28;20061;-72
2023/12/18 02:54:46;;;;;;;17.42;8.23;;;8.70;99.90;;;;;;5003585;28;20052;-72
2023/12/18 02:57:12;;;;;;;20.48;8.77;;;;;;;;;;4984953;28;20042;-72
2023/12/18 02:59:38;;;;;;;19.48;8.18;;;;;;;;;;4986287;28;20045;-72
2023/12/18 03:02:04;;;;;;;25.70;10.40;;;;;;;;;;5003727;28;20524;-72
2023/12/18 03:04:30;;;;;;;20.73;9.27;;;;;;;;;;4985974;28;20046;-72
2023/12/18 03:06:56;;;;;;;24.15;10.07;;;;;;;;;;4986483;28;20045;-72
2023/12/18 03:09:22;;;;;;;22.73;9.85;;;;;;;;;;4985920;28;20053;-72
2023/12/18 03:11:48;;;;;;;24.60;11.25;;;;;;;;;;4986225;28;20045;-72
2023/12/18 03:14:14;;;;;;;27.92;11.35;;;;;;;;;;4984918;28;20115;-72
2023/12/18 03:16:41;;;;;;;29.63;11.73;;;;;;;;;;4985997;28;20127;-72
2023/12/18 03:19:07;;;;;;;21.65;10.98;;;;;;;;;;4985077;28;20076;-72
2023/12/18 03:21:32;;;;;;;27.35;11.40;;;8.50;99.90;;;;;;4985152;28;20562;-72
2023/12/18 03:23:58;;;;;;;27.85;11.80;;;;;;;;;;4985606;28;20049;-72
2023/12/18 03:26:24;;;;;;;30.05;12.63;;;;;;;;;;4985115;28;20045;-72
2023/12/18 03:28:51;;;;;;;30.80;11.57;;;;;;;;;;4998145;28;20523;-72
2023/12/18 03:31:17;;;;;;;24.83;11.02;;;;;;;;;;4981443;28;20041;-72
2023/12/18 03:33:43;;;;;;;29.25;11.35;;;;;;;;;;5001613;28;20428;-72
2023/12/18 03:36:09;;;;;;;27.40;11.43;;;;;;;;;;5002784;28;20050;-71
2023/12/18 03:38:35;;;;;;;23.38;10.80;;;;;;;;;;4982377;28;20133;-72
2023/12/18 03:41:01;;;;;;;21.45;9.68;;;;;;;;;;4982598;28;20049;-72
2023/12/18 03:43:27;;;;;;;23.45;11.30;;;;;;;;;;4984887;28;20046;-72
2023/12/18 03:45:53;;;;;;;29.25;11.15;;;;;;;;;;4984796;28;20050;-72
2023/12/18 03:48:19;;;;;;;21.00;10.45;;;;;;;;;;4985004;28;20052;-71
2023/12/18 03:50:46;;;;;;;22.33;9.73;;;;;;;;;;4984776;28;20046;-72
2023/12/18 03:53:12;;;;;;;21.30;9.52;;;;;;;;;;4982660;28;20216;-72
2023/12/18 03:55:38;;;;;;;26.92;10.73;;;;;;;;;;5002463;28;20042;-72
2023/12/18 03:58:04;;;;;;;24.55;10.18;;;;;;;;;;4985082;28;20054;-72
2023/12/18 04:00:30;;;;;;;28.25;11.68;;;;;;;;;;4984998;28;20053;-72
2023/12/18 04:02:56;;;;;;;20.13;11.05;;;;;;;;;;5002412;28;20591;-72
2023/12/18 04:05:25;;;;;;;24.33;11.25;;;;;;;;;;4984161;28;20398;-72
2023/12/18 04:07:51;;;;;;;33.00;12.20;;;;;;;;;;4982226;28;20045;-72
2023/12/18 04:10:17;;;;;;;27.75;12.52;;;;;;;;;;4982966;28;20061;-72
2023/12/18 04:12:43;;;;;;;30.25;11.50;;;;;;;;;;4984020;28;20052;-72
2023/12/18 04:15:11;;;;;;;23.83;12.32;;;;;;;;;;5002208;28;20057;-72
2023/12/18 04:17:37;;;;;;;27.35;12.45;;;;;;;;;;5001829;28;20042;-72
2023/12/18 04:20:03;;;;;;;29.45;11.57;;;;;;;;;;4982719;28;20050;-72
2023/12/18 04:22:30;;;;;;;25.13;10.93;;;;;;;;;;4978114;28;20049;-72
2023/12/18 04:24:56;;;;;;;26.60;12.20;;;;;;;;;;4982405;28;20042;-72
2023/12/18 04:27:22;;;;;;;29.38;11.90;;;;;;;;;;4984815;28;20054;-72
2023/12/18 04:29:48;;;;;;;23.42;12.98;;;;;;;;;;4984663;28;20397;-72
2023/12/18 04:32:14;;;;;;;24.95;12.07;;;;;;;;;;4981302;28;20383;-72
2023/12/18 04:34:40;;;;;;;24.45;12.43;;;;;;;;;;4984623;28;20077;-72
2023/12/18 04:37:06;;;;;;;25.00;10.82;;;;;;;;;;5001929;28;20128;-72
2023/12/18 04:39:34;;;;;;;29.50;13.00;;;;;;;;;;4983581;28;20038;-72
2023/12/18 04:42:00;;;;;;;26.23;13.63;;;;;;;;;;4967890;28;20051;-72
2023/12/18 04:44:26;;;;;;;23.38;11.38;;;;;;;;;;4982624;28;20502;-72
2023/12/18 04:46:52;;;;;;;33.30;11.95;;;;;;;;;;4984687;28;20050;-72
2023/12/18 04:49:18;;;;;;;25.50;11.05;;;;;;;;;;4984559;28;20540;-72
2023/12/18 04:51:44;;;;;;;25.77;12.07;;;;;;;;;;4982606;28;20050;-72
2023/12/18 04:54:11;;;;;;;29.45;12.32;;;;;;;;;;5002142;28;20417;-72
2023/12/18 04:56:37;;;;;;;26.08;11.27;;;;;;;;;;5000774;28;20046;-72
2023/12/18 04:59:03;;;;;;;27.10;11.90;;;;;;;;;;4984180;28;20052;-72
2023/12/18 05:01:29;;;;;;;22.75;11.90;;;;;;;;;;4984881;28;20057;-72
2023/12/18 05:03:55;;;;;;;31.05;12.07;;;;;;;;;;4983767;28;20092;-72
2023/12/18 05:06:22;;;;;;;29.50;13.05;;;;;;;;;;4981039;28;20053;-72
2023/12/18 05:08:49;;;;;;;31.55;10.93;;;;;;;;;;4984382;28;20045;-72
2023/12/18 05:11:17;;;;;;;24.15;11.85;;;;;;;;;;4980986;28;20050;-72
2023/12/18 05:13:43;;;;;;;26.88;12.48;;;;;;;;;;5001512;28;20046;-72
2023/12/18 05:16:09;;;;;;;26.33;12.35;;;;;;;;;;5001856;28;20058;-72
2023/12/18 05:18:35;;;;;;;28.25;12.77;;;;;;;;;;4984610;28;20089;-72
2023/12/18 05:21:01;;;;;;;29.40;13.73;;;;;;;;;;4987768;28;20058;-72
2023/12/18 05:23:27;;;;;;;24.80;11.75;;;;;;;;;;4972006;28;20060;-72
2023/12/18 05:25:53;;;;;;;29.60;11.45;;;;;;;;;;4988349;28;20053;-72
2023/12/18 05:28:19;;;;;;;26.80;11.68;;;;;;;;;;4987360;28;20551;-72
2023/12/18 05:30:45;;;;;;;22.83;11.98;;;;;;;;;;4987814;28;20056;-72
2023/12/18 05:33:11;;;;;;;29.48;11.07;;;;;;;;;;4988056;28;20078;-72
2023/12/18 05:35:37;;;;;;;30.35;12.52;;;;;;;;;;4971071;28;20037;-72
2023/12/18 05:38:04;;;;;;;23.92;11.63;;;;;;;;;;5005225;28;20665;-72
2023/12/18 05:40:30;;;;;;;22.05;11.00;;;;;;;;;;5005304;28;20041;-72
2023/12/18 05:42:56;;;;;;;26.65;11.05;;;;;;;;;;4987208;28;20046;-71
2023/12/18 05:45:22;;;;;;;23.10;10.88;;;;;;;;;;4986723;28;20143;-72
2023/12/18 05:47:48;;;;;;;23.95;11.43;;;;;;;;;;4987799;28;20437;-72
2023/12/18 05:50:14;;;;;;;27.13;10.73;;;;;;;;;;4987007;28;20172;-72
2023/12/18 05:52:40;;;;;;;20.55;11.05;;;;;;;;;;5002530;28;20038;-72
2023/12/18 05:55:07;;;;;;;21.50;11.13;;;;;;;;;;4997886;28;20057;-72
2023/12/18 05:57:33;;;;;;;30.55;12.75;;;;;;;;;;4987031;28;20136;-72
2023/12/18 05:59:59;;;;;;;23.67;11.52;;;;;;;;;;4987056;28;20103;-72
2023/12/18 06:02:25;;;;;;;25.30;11.68;;;;;;;;;;4987011;28;20555;-72
2023/12/18 06:04:51;;;;;;;21.95;10.30;;;;;;;;;;4986970;28;20053;-72
2023/12/18 06:07:17;;;;;;;20.08;11.25;;;;;;;;;;4985444;28;20472;-72
2023/12/18 06:09:43;;;;;;;25.73;13.38;;;;;;;;;;4987233;28;20064;-72
2023/12/18 06:12:09;;;;;;;23.67;11.43;;;;;;;;;;4986356;28;20049;-72
2023/12/18 06:14:35;;;;;;;25.65;10.27;;;;;;;;;;4986617;28;20064;-72
2023/12/18 06:17:01;;;;;;;23.92;11.23;;;;;;;;;;5004533;28;20042;-72
2023/12/18 06:19:27;;;;;;;36.13;11.88;;;;;;;;;;4986139;28;20528;-72
2023/12/18 06:21:54;;;;;;;27.35;10.70;;;;;;;;;;4986932;28;20446;-72
2023/12/18 06:24:20;;;;;;;27.60;10.43;;;;;;;;;;4985901;28;20153;-72
2023/12/18 06:26:46;;;;;;;25.48;11.38;;;;;;;;;;5004051;28;20204;-72
2023/12/18 06:29:12;;;;;;;23.60;11.35;;;;;;;;;;4986256;28;20046;-72
2023/12/18 06:31:38;;;;;;;32.60;13.10;;;;;;;;;;4984850;28;20050;-72
2023/12/18 06:34:03;;;;;;;27.30;11.40;;;8.40;99.90;;;;;;5003313;28;20048;-72
2023/12/18 06:36:30;;;;;;;27.77;11.35;;;;;;;;;;4983515;28;20041;-72
2023/12/18 06:38:56;;;;;;;33.67;12.93;;;;;;;;;;5003120;28;20042;-72
2023/12/18 06:41:22;;;;;;;28.40;10.55;;;;;;;;;;4982546;28;20054;-72
2023/12/18 06:43:48;;;;;;;26.70;10.55;;;;;;;;;;4963892;28;20568;-72
2023/12/18 06:46:14;;;;;;;26.30;12.18;;;;;;;;;;4986184;28;20144;-72
2023/12/18 06:48:41;;;;;;;29.80;11.93;;;;;;;;;;5001138;28;20456;-72
2023/12/18 06:51:09;;;;;;;23.73;12.43;;;;;;;;;;4986331;28;20501;-72
2023/12/18 06:53:35;;;;;;;23.05;11.43;;;;;;;;;;4986333;28;20045;-72
2023/12/18 06:56:01;;;;;;;24.33;11.52;;;;;;;;;;4986073;28;20048;-72
2023/12/18 06:58:27;;;;;;;24.95;11.93;;;;;;;;;;5004388;28;20042;-72
2023/12/18 07:00:53;;;;;;;23.05;11.10;;;;;;;;;;4986260;28;20046;-72
2023/12/18 07:03:19;;;;;;;26.33;10.80;;;;;;;;;;4986335;28;20768;-72
2023/12/18 07:05:46;;;;;;;23.42;11.40;;;;;;;;;;4986897;28;20056;-70
2023/12/18 07:08:12;;;;;;;21.60;11.55;;;;;;;;;;4997867;28;20618;-72
2023/12/18 07:10:38;;;;;;;25.77;11.70;;;8.40;99.90;;;;;;5004299;28;20516;-71
2023/12/18 07:13:04;;;;;;;25.20;11.52;;;;;;;;;;5001277;28;20041;-72
2023/12/18 07:15:30;;;;;;;24.80;10.75;;;;;;;;;;4984938;28;20054;-72
2023/12/18 07:17:58;;;;;;;25.13;11.27;;;;;;;;;;4984518;28;20052;-72
2023/12/18 07:20:24;;;;;;;25.42;11.23;;;;;;;;;;4983100;28;20455;-72
2023/12/18 07:22:50;;;;;;;20.67;11.25;;;;;;;;;;5002701;28;20046;-72
2023/12/18 07:25:16;;;;;;;27.58;11.40;;;;;;;;;;4985289;28;20162;-71
2023/12/18 07:27:44;;;;;;;22.30;11.57;;;;;;;;;;4985965;28;20042;-72
2023/12/18 07:30:11;;;;;;;26.38;11.68;;;;;;;;;;5001747;28;20045;-71
2023/12/18 07:32:37;;;;;;;22.90;11.60;;;;;;;;;;5006248;28;20084;-70
2023/12/18 07:35:04;;;;;;;27.23;12.02;;;;;;;;;;4985269;28;20405;-70
2023/12/18 07:37:30;;;;;;;23.40;12.25;;;;;;;;;;5003160;28;20042;-70
2023/12/18 07:39:57;;;;;;;22.70;11.75;;;;;;;;;;4984594;28;20076;-70
2023/12/18 07:42:23;;;;;;;20.92;10.95;;;;;;;;;;4983886;28;20038;-69
2023/12/18 07:44:49;;;;;;;31.33;10.70;;;;;;;;;;5002803;28;20135;-70
2023/12/18 07:47:16;;;;;;;24.35;12.48;;;;;;;;;;5000973;28;20042;-70
2023/12/18 07:49:42;;;;;;;32.47;13.45;;;;;;;;;;5002571;28;20505;-70
2023/12/18 07:52:08;;;;;;;26.48;11.25;;;;;;;;;;5003259;28;20156;-70
2023/12/18 07:54:34;;;;;;;31.60;13.23;;;;;;;;;;5002282;28;20045;-70
2023/12/18 07:57:00;;;;;;;26.35;11.30;;;;;;;;;;4998789;28;20038;-70
2023/12/18 07:59:28;;;;;;;24.52;13.07;;;;;;;;;;4984801;28;20046;-70
2023/12/18 08:01:55;;;;;;;25.58;12.50;;;;;;;;;;5002313;28;20045;-70
2023/12/18 08:04:21;;;;;;;22.15;12.27;;;;;;;;;;4984529;28;20489;-70
2023/12/18 08:06:48;;;;;;;25.58;13.10;;;;;;;;;;5002503;28;20413;-70
2023/12/18 08:09:14;;;;;;;27.90;13.93;;;;;;;;;;4998024;28;20042;-70
2023/12/18 08:11:40;;;;;;;27.00;13.50;;;;;;;;;;4997734;28;20126;-70
2023/12/18 08:14:06;;;;;;;24.40;13.43;;;;;;;;;;4964879;28;20045;-71
2023/12/18 08:16:33;;;;;;;27.65;12.82;;;;;;;;;;4977375;28;20911;-70
2023/12/18 08:18:59;;;;;;;32.92;13.55;;;;;;;;;;4980892;28;20050;-70
2023/12/18 08:21:26;;;;;;;27.15;14.18;;;;;;;;;;4984970;28;20099;-70
2023/12/18 08:23:52;;;;;;;31.98;14.00;;;;;;;;;;4983249;28;20398;-70
2023/12/18 08:26:18;;;;;;;27.23;13.85;;;;;;;;;;4982166;28;20144;-70
2023/12/18 08:28:44;;;;;;;32.08;14.48;;;;;;;;;;4985787;28;20163;-70
2023/12/18 08:31:11;;;;;;;30.15;15.13;;;;;;;;;;4984947;28;20453;-69
2023/12/18 08:33:38;;;;;;;33.47;15.40;;;;;;;;;;5002843;28;20052;-70
2023/12/18 08:36:04;;;;;;;34.85;15.98;;;;;;;;;;5002348;28;20052;-69
2023/12/18 08:38:30;;;;;;;25.85;13.80;;;;;;;;;;4984877;28;20053;-69
2023/12/18 08:40:56;;;;;;;30.13;14.57;;;;;;;;;;5002556;28;20391;-69
2023/12/18 08:43:23;;;;;;;23.50;13.63;;;;;;;;;;4982278;28;20053;-69
2023/12/18 08:45:49;;;;;;;28.33;13.85;;;;;;;;;;5001870;28;20053;-70
2023/12/18 08:48:15;;;;;;;29.98;14.95;;;;;;;;;;4984546;28;20038;-69
2023/12/18 08:50:41;;;;;;;32.25;15.10;;;;;;;;;;5002436;28;20089;-70
2023/12/18 08:53:07;;;;;;;31.40;14.30;;;;;;;;;;4984808;28;20077;-69
2023/12/18 08:55:38;;;;;;;26.63;14.63;;;;;;;;;;5000039;28;20053;-69
2023/12/18 08:58:04;;;;;;;25.92;15.48;;;;;;;;;;4988437;28;20060;-69
2023/12/18 09:00:30;;;;;;;32.03;15.23;;;;;;;;;;5005464;28;20384;-69
2023/12/18 09:02:58;;;;;;;32.10;15.40;;;;;;;;;;4988146;28;20045;-70
2023/12/18 09:05:24;;;;;;;27.83;15.90;;;;;;;;;;4986958;28;20539;-70
2023/12/18 09:07:50;;;;;;;40.30;17.80;;;;;;;;;;5005548;28;20578;-70
2023/12/18 09:10:17;;;;;;;24.77;16.02;;;;;;;;;;4983869;28;20046;-70
2023/12/18 09:12:44;;;;;;;27.63;16.50;;;;;;;;;;4987615;28;20598;-69
2023/12/18 09:15:10;;;;;;;33.67;17.08;;;;;;;;;;5004773;28;20058;-69
2023/12/18 09:17:36;;;;;;;26.25;16.55;;;;;;;;;;5005240;28;20176;-69
2023/12/18 09:20:03;;;;;;;34.10;18.50;;;;;;;;;;5004893;28;20519;-70
2023/12/18 09:22:29;;;;;;;32.85;16.77;;;;;;;;;;4987585;28;20045;-70
2023/12/18 09:24:55;;;;;;;36.28;18.60;;;;;;;;;;5003387;28;20046;-70
2023/12/18 09:27:21;;;;;;;39.95;18.30;;;;;;;;;;4987124;28;20042;-71
2023/12/18 09:29:47;;;;;;;41.00;17.90;;;;;;;;;;4984422;28;20077;-70
2023/12/18 09:32:13;;;;;;;35.78;18.60;;;;;;;;;;4987195;28;20158;-70
2023/12/18 09:34:39;;;;;;;34.40;18.20;;;;;;;;;;5004833;28;20061;-70
2023/12/18 09:37:05;;;;;;;27.98;16.98;;;;;;;;;;4987003;28;20120;-70
2023/12/18 09:39:31;;;;;;;35.35;18.52;;;;;;;;;;5005433;28;20100;-70
2023/12/18 09:42:01;;;;;;;33.55;19.02;;;;;;;;;;4997606;28;20049;-70
2023/12/18 09:44:28;;;;;;;34.00;18.50;;;;;;;;;;5004328;28;20053;-70
2023/12/18 09:46:54;;;;;;;31.63;16.63;;;;;;;;;;4986343;28;20048;-70
2023/12/18 09:49:20;;;;;;;34.53;19.95;;;;;;;;;;4987377;28;20045;-70
2023/12/18 09:51:48;;;;;;;39.88;19.35;;;;;;;;;;5005188;28;20041;-70
2023/12/18 09:54:14;;;;;;;33.05;17.55;;;;;;;;;;4986992;28;20497;-70
2023/12/18 09:56:41;;;;;;;29.73;17.13;;;;;;;;;;5004660;28;20042;-70
2023/12/18 09:59:07;;;;;;;40.75;19.45;;;;;;;;;;5004346;28;20565;-70
2023/12/18 10:01:34;;;;;;;35.13;19.17;;;;;;;;;;4984280;28;20052;-70
2023/12/18 10:04:00;;;;;;;33.10;20.10;;;;;;;;;;4986287;28;20125;-70
2023/12/18 10:06:26;;;;;;;36.53;18.80;;;8.70;99.90;;;;;;4986194;28;20049;-70
2023/12/18 10:08:52;;;;;;;38.13;17.88;;;;;;;;;;5004742;28;20037;-70
2023/12/18 10:11:25;;;;;;;34.13;17.83;;;;;;;;;;4986727;28;20050;-70
2023/12/18 10:13:53;;;;;;;30.50;18.73;;;;;;;;;;4986824;28;20041;-70
2023/12/18 10:16:19;;;;;;;35.05;17.42;;;;;;;;;;5004279;28;20089;-70
2023/12/18 10:18:45;;;;;;;31.13;17.35;;;;;;;;;;4986360;28;20041;-70
2023/12/18 10:21:12;;;;;;;38.80;18.88;;;;;;;;;;5004704;28;20053;-70
2023/12/18 10:23:39;;;;;;;28.73;17.90;;;;;;;;;;5004132;28;20049;-70
2023/12/18 10:26:05;;;;;;;39.05;18.95;;;;;;;;;;5004107;28;20046;-70
2023/12/18 10:28:31;;;;;;;37.00;20.17;;;;;;;;;;4986339;28;20129;-70
2023/12/18 10:30:57;;;;;;;37.20;18.42;;;;;;;;;;5004198;28;20041;-71
2023/12/18 10:33:25;;;;;;;32.33;18.40;;;;;;;;;;4986396;28;20041;-70
2023/12/18 10:35:53;;;;;;;35.33;19.20;;;;;;;;;;4986878;28;20487;-71
2023/12/18 10:38:20;;;;;;;38.17;18.33;;;;;;;;;;4986503;28;20045;-70
2023/12/18 10:40:47;;;;;;;33.35;18.02;;;;;;;;;;4986466;28;20454;-71
2023/12/18 10:43:18;;;;;;;42.03;19.00;;;;;;;;;;4986690;28;20148;-70
2023/12/18 10:45:46;;;;;;;36.17;18.08;;;;;;;;;;4986373;28;20096;-70
2023/12/18 10:48:13;;;;;;;34.33;18.30;;;;;;;;;;5003933;28;20052;-70
2023/12/18 10:50:39;;;;;;;35.33;18.95;;;;;;;;;;4983296;28;20373;-70
2023/12/18 10:53:05;;;;;;;33.80;17.58;;;;;;;;;;4986041;28;20073;-71
2023/12/18 10:55:31;;;;;;;32.20;17.13;;;;;;;;;;4986535;28;20050;-70
2023/12/18 10:57:59;;;;;;;38.55;20.02;;;;;;;;;;5002946;28;20042;-70
2023/12/18 11:00:26;;;;;;;37.08;20.70;;;;;;;;;;4983332;28;20874;-70
2023/12/18 11:02:52;;;;;;;39.42;18.38;;;;;;;;;;4964192;28;20099;-70
2023/12/18 11:05:20;;;;;;;34.42;17.88;;;;;;;;;;4984313;28;20043;-70
2023/12/18 11:07:46;;;;;;;40.80;19.08;;;;;;;;;;5003655;28;20034;-73
2023/12/18 11:10:12;;;;;;;32.75;19.15;;;9.00;99.90;;;;;;5003450;28;20049;-71
2023/12/18 11:12:40;;;;;;;34.33;18.35;;;;;;;;;;4984424;28;20042;-71
2023/12/18 11:15:12;;;;;;;34.65;18.38;;;;;;;;;;4982685;28;20421;-70
2023/12/18 11:17:59;;;;;;;27.20;18.02;;;9.00;99.90;;;;;;4985196;28;20104;-70
2023/12/18 11:20:34;;;;;;;29.75;16.98;;;;;;;;;;4986919;28;20058;-70
2023/12/18 11:23:01;;;;;;;33.33;17.90;;;;;;;;;;4985692;28;20135;-70
2023/12/18 11:25:38;;;;;;;34.17;17.83;;;;;;;;;;5004095;28;20124;-70
2023/12/18 11:28:06;;;;;;;37.17;18.17;;;;;;;;;;4985305;28;20126;-70
2023/12/18 11:30:32;;;;;;;39.08;17.98;;;;;;;;;;4985103;28;20053;-70
2023/12/18 11:33:03;;;;;;;37.03;18.30;;;;;;;;;;4984795;28;20048;-71
2023/12/18 11:35:30;;;;;;;33.28;18.48;;;;;;;;;;4999861;28;20120;-70
2023/12/18 11:38:03;;;;;;;34.55;19.08;;;;;;;;;;4985479;28;20042;-70
2023/12/18 11:40:32;;;;;;;33.65;17.35;;;;;;;;;;4981642;28;20050;-71
2023/12/18 11:42:58;;;;;;;29.92;18.08;;;;;;;;;;5000111;28;20047;-70
2023/12/18 11:45:27;;;;;;;34.63;18.83;;;;;;;;;;5002291;28;20440;-70
2023/12/18 11:47:54;;;;;;;27.15;17.38;;;;;;;;;;5002875;28;20261;-71
2023/12/18 11:50:21;;;;;;;36.90;19.48;;;;;;;;;;4985159;28;20084;-70
2023/12/18 11:52:49;;;;;;;35.70;18.80;;;;;;;;;;4985186;28;20051;-71
2023/12/18 11:55:35;;;;;;;31.88;17.27;;;;;;;;;;5003039;28;20104;-70
2023/12/18 11:58:01;;;;;;;37.47;19.55;;;;;;;;;;4989170;28;20255;-70
2023/12/18 12:00:29;;;;;;;36.92;18.33;;;;;;;;;;5002806;28;20505;-71
2023/12/18 12:02:55;;;;;;;31.27;18.35;;;;;;;;;;5002701;28;20042;-70
2023/12/18 12:05:22;;;;;;;31.73;17.77;;;;;;;;;;4985186;28;20054;-71
2023/12/18 12:07:51;;;;;;;40.88;18.05;;;;;;;;;;5002965;28;20049;-70
2023/12/18 12:10:17;;;;;;;29.10;17.98;;;;;;;;;;5003064;28;20054;-71
2023/12/18 12:12:44;;;;;;;38.90;17.80;;;;;;;;;;4984905;28;20038;-70
2023/12/18 12:15:10;;;;;;;36.97;17.70;;;;;;;;;;5002765;28;20875;-71
2023/12/18 12:17:37;;;;;;;40.83;19.17;;;;;;;;;;4985053;28;20089;-70
2023/12/18 12:20:09;;;;;;;36.85;19.65;;;;;;;;;;5003664;28;20057;-70
2023/12/18 12:22:35;;;;;;;35.22;19.08;;;;;;;;;;5003223;28;20523;-70
2023/12/18 12:25:01;;;;;;;36.20;18.10;;;;;;;;;;4985066;28;20791;-70
2023/12/18 12:27:28;;;;;;;33.80;17.13;;;;;;;;;;5002839;28;20050;-70
2023/12/18 12:29:54;;;;;;;34.25;17.10;;;;;;;;;;5006325;28;20575;-71
2023/12/18 12:32:20;;;;;;;30.63;16.77;;;;;;;;;;5006864;28;20042;-71
2023/12/18 12:34:46;;;;;;;34.17;18.00;;;;;;;;;;5006218;28;20159;-70
2023/12/18 12:37:12;;;;;;;29.05;17.05;;;;;;;;;;4988531;28;20045;-70
2023/12/18 12:39:55;;;;;;;39.75;18.33;;;9.20;99.90;;;;;;4988607;28;20125;-70
2023/12/18 12:42:21;;;;;;;35.38;18.88;;;;;;;;;;4988230;28;20571;-70
2023/12/18 12:44:47;;;;;;;31.92;18.02;;;;;;;;;;5000935;28;20481;-70
2023/12/18 12:47:13;;;;;;;32.80;16.95;;;;;;;;;;4988559;28;20041;-70
2023/12/18 12:49:43;;;;;;;36.78;17.33;;;;;;;;;;4985601;28;20052;-70
2023/12/18 12:52:09;;;;;;;28.42;17.30;;;;;;;;;;4969940;28;20132;-69
2023/12/18 12:54:35;;;;;;;29.55;16.40;;;;;;;;;;5006338;28;20121;-69
2023/12/18 12:57:01;;;;;;;30.70;16.65;;;;;;;;;;5006901;28;20042;-70
2023/12/18 12:59:28;;;;;;;32.15;18.63;;;;;;;;;;5006147;28;20037;-71
2023/12/18 13:01:54;;;;;;;34.65;17.20;;;;;;;;;;5006941;28;20045;-70
2023/12/18 13:04:20;;;;;;;30.52;17.05;;;;;;;;;;4986786;28;20424;-70
2023/12/18 13:06:46;;;;;;;28.38;17.55;;;;;;;;;;4988670;28;20057;-69
2023/12/18 13:09:12;;;;;;;32.92;17.33;;;;;;;;;;4970973;28;20109;-70
2023/12/18 13:11:39;;;;;;;36.60;16.65;;;;;;;;;;5006302;28;20053;-70
2023/12/18 13:14:06;;;;;;;30.27;17.33;;;;;;;;;;5006164;28;20745;-70
2023/12/18 13:16:32;;;;;;;33.60;18.30;;;;;;;;;;5005497;28;20057;-70
2023/12/18 13:18:58;;;;;;;35.90;18.02;;;;;;;;;;5005397;28;20050;-70
2023/12/18 13:21:24;;;;;;;33.95;17.15;;;;;;;;;;4988001;28;20500;-69
2023/12/18 13:23:49;;;;;;;32.10;16.48;;;9.30;99.90;;;;;;4988029;28;20048;-69
2023/12/18 13:26:15;;;;;;;28.73;17.88;;;9.10;99.90;;;;;;5005432;28;20038;-70
2023/12/18 13:28:41;;;;;;;32.85;16.88;;;;;;;;;;5006233;28;20104;-69
2023/12/18 13:31:07;;;;;;;29.30;15.63;;;;;;;;;;5000838;28;20049;-70
2023/12/18 13:33:33;;;;;;;31.85;16.85;;;;;;;;;;4987760;28;20057;-70
2023/12/18 13:35:59;;;;;;;35.97;17.48;;;;;;;;;;4988633;28;20046;-70
2023/12/18 13:38:25;;;;;;;28.90;15.30;;;9.20;99.90;;;;;;4985316;28;20045;-69
2023/12/18 13:40:51;;;;;;;27.27;16.60;;;;;;;;;;4986964;28;20523;-70
2023/12/18 13:43:17;;;;;;;28.63;16.75;;;;;;;;;;5005980;28;20048;-70
2023/12/18 13:45:43;;;;;;;31.25;17.40;;;;;;;;;;5004808;28;20045;-70
2023/12/18 13:48:09;;;;;;;34.05;17.38;;;;;;;;;;5005055;28;20046;-70
2023/12/18 13:50:36;;;;;;;32.92;17.77;;;;;;;;;;4987738;28;20081;-70
2023/12/18 13:53:02;;;;;;;32.13;16.05;;;9.30;99.90;;;;;;5005430;28;20053;-70
2023/12/18 13:55:28;;;;;;;38.20;17.30;;;;;;;;;;4981965;28;20042;-69
2023/12/18 13:57:54;;;;;;;29.33;17.33;;;;;;;;;;4986931;28;20052;-70
2023/12/18 14:00:20;;;;;;;32.83;16.92;;;;;;;;;;4982094;28;20105;-70
2023/12/18 14:02:46;;;;;;;30.58;16.75;;;;;;;;;;4970044;28;20034;-70
2023/12/18 14:05:12;;;;;;;33.20;16.67;;;;;;;;;;5005100;28;20061;-70
2023/12/18 14:07:38;;;;;;;33.10;17.48;;;;;;;;;;4985891;28;20096;-70
2023/12/18 14:10:07;;;;;;;35.85;18.13;;;;;;;;;;5003739;28;20046;-70
2023/12/18 14:12:34;;;;;;;31.98;17.60;;;;;;;;;;4971561;28;20856;-69